createdAt,value
2023-04-05T00:14:49.802Z,4.62
2023-04-05T00:17:17.993Z,4.55
2023-04-05T00:19:45.143Z,4.56
2023-04-05T00:22:11.705Z,4.51
2023-04-05T00:24:41.976Z,4.44
2023-04-05T00:27:08.635Z,4.38
2023-04-05T00:35:12.705Z,4.46
2023-04-05T00:37:39.310Z,4.38
2023-04-05T00:40:06.552Z,4.33
2023-04-05T00:42:33.145Z,4.28
2023-04-05T00:45:56.386Z,4.01
2023-04-05T00:48:42.995Z,4.00
2023-04-05T00:51:11.900Z,3.74
2023-04-05T00:53:40.811Z,3.73
2023-04-05T00:56:08.402Z,3.73
2023-04-05T00:58:35.022Z,3.80
2023-04-05T01:01:13.911Z,3.57
2023-04-05T01:06:28.466Z,3.92
2023-04-05T01:09:10.552Z,4.01
2023-04-05T01:11:40.326Z,4.05
2023-04-05T01:14:06.918Z,4.02
2023-04-05T01:16:33.596Z,3.80
2023-04-05T01:23:37.820Z,3.74
2023-04-05T01:29:03.668Z,3.32
2023-04-05T01:31:51.598Z,3.41
2023-04-05T01:35:00.041Z,3.36
2023-04-05T01:37:32.882Z,3.39
2023-04-05T01:40:15.971Z,3.33
2023-04-05T01:42:46.170Z,3.29
2023-04-05T01:45:12.764Z,3.29
2023-04-05T01:47:39.495Z,3.22
2023-04-05T01:53:51.697Z,3.08
2023-04-05T01:56:18.250Z,3.09
2023-04-05T01:58:45.122Z,3.12
2023-04-05T02:01:12.062Z,3.07
2023-04-05T02:03:38.737Z,3.33
2023-04-05T02:06:06.071Z,3.43
2023-04-05T02:40:15.347Z,3.19
2023-04-05T02:42:42.249Z,3.17
2023-04-05T02:45:09.175Z,2.91
2023-04-05T02:47:36.000Z,2.74
2023-04-05T02:50:02.708Z,2.57
2023-04-05T02:55:24.859Z,2.84
2023-04-05T02:57:51.450Z,2.60
2023-04-05T03:00:18.664Z,2.56
2023-04-05T03:02:45.384Z,2.61
2023-04-05T03:05:14.002Z,2.61
2023-04-05T03:07:42.615Z,2.55
2023-04-05T03:13:46.887Z,2.40
2023-04-05T03:16:13.456Z,2.25
2023-04-05T03:18:40.079Z,2.37
2023-04-05T03:21:06.750Z,2.28
2023-04-05T03:23:34.011Z,2.38
2023-04-05T03:26:01.466Z,2.21
2023-04-05T03:31:09.707Z,2.07
2023-04-05T03:33:36.340Z,2.05
2023-04-05T03:36:03.108Z,2.30
2023-04-05T03:38:32.623Z,2.29
2023-04-05T03:40:59.199Z,2.38
2023-04-05T03:47:21.857Z,2.01
2023-04-05T04:07:02.798Z,2.22
2023-04-05T04:09:29.929Z,2.17
2023-04-05T04:11:57.202Z,2.10
2023-04-05T04:14:24.643Z,2.10
2023-04-05T04:16:51.304Z,1.79
2023-04-05T04:19:46.798Z,1.78
2023-04-05T04:22:38.878Z,1.82
2023-04-05T04:25:10.474Z,1.91
2023-04-05T04:27:41.958Z,1.80
2023-04-05T04:30:10.819Z,1.56
2023-04-05T04:32:54.141Z,1.65
2023-04-05T04:35:24.690Z,1.76
2023-04-05T04:40:46.901Z,1.60
2023-04-05T04:43:17.475Z,1.66
2023-04-05T04:45:47.062Z,1.75
2023-04-05T04:48:17.249Z,1.74
2023-04-05T04:50:44.688Z,1.67
2023-04-05T04:54:03.996Z,1.60
2023-04-05T04:56:52.378Z,1.75
2023-04-05T04:59:19.032Z,1.91
2023-04-05T05:01:46.259Z,1.77
2023-04-05T05:04:12.915Z,1.84
2023-04-05T05:06:55.838Z,1.99
2023-04-05T05:09:22.375Z,2.27
2023-04-05T05:11:48.987Z,2.19
2023-04-05T05:14:15.737Z,2.25
2023-04-05T05:16:42.417Z,2.28
2023-04-05T05:19:09.003Z,2.34
2023-04-05T05:21:36.856Z,2.36
2023-04-05T05:24:04.492Z,2.53
2023-04-05T05:29:06.547Z,2.38
2023-04-05T05:31:33.841Z,2.65
2023-04-05T05:34:00.485Z,2.69
2023-04-05T05:36:28.287Z,2.80
2023-04-05T05:38:54.924Z,2.76
2023-04-05T05:41:22.344Z,2.97
2023-04-05T05:43:48.911Z,2.78
2023-04-05T05:46:16.094Z,3.22
2023-04-05T05:48:42.748Z,3.27
2023-04-05T05:51:12.051Z,3.33
2023-04-05T05:53:40.138Z,3.46
2023-04-05T05:56:11.259Z,3.64
2023-04-05T05:58:38.154Z,3.82
2023-04-05T06:01:11.986Z,3.65
2023-04-05T06:03:38.815Z,3.86
2023-04-05T06:06:08.452Z,4.07
2023-04-05T06:08:35.100Z,3.72
2023-04-05T06:11:01.771Z,3.81
2023-04-05T06:13:46.877Z,3.42
2023-04-05T06:16:13.512Z,4.03
2023-04-05T06:18:40.176Z,4.68
2023-04-05T06:21:06.750Z,5.92
2023-04-05T06:27:16.480Z,5.73
2023-04-05T06:29:43.042Z,5.59
2023-04-05T06:32:09.705Z,5.71
2023-04-05T06:34:36.529Z,6.11
2023-04-05T06:37:03.558Z,6.51
2023-04-05T06:39:30.172Z,6.48
2023-04-05T06:41:57.844Z,6.17
2023-04-05T06:44:24.505Z,4.81
2023-04-05T06:46:51.948Z,4.41
2023-04-05T06:49:18.614Z,5.05
2023-04-05T06:51:45.689Z,4.88
2023-04-05T06:54:12.287Z,5.08
2023-04-05T06:56:44.840Z,5.28
2023-04-05T06:59:11.467Z,5.18
2023-04-05T07:01:38.158Z,4.87
2023-04-05T07:04:04.970Z,5.11
2023-04-05T07:06:34.564Z,4.81
2023-04-05T07:09:01.992Z,4.63
2023-04-05T07:11:28.690Z,5.15
2023-04-05T07:13:55.358Z,4.75
2023-04-05T07:16:23.751Z,4.84
2023-04-05T07:18:51.201Z,4.88
2023-04-05T07:21:17.777Z,4.72
2023-04-05T07:23:44.363Z,5.14
2023-04-05T07:26:12.449Z,5.32
2023-04-05T07:28:39.131Z,5.37
2023-04-05T07:31:07.042Z,5.35
2023-04-05T07:33:34.240Z,5.52
2023-04-05T07:36:01.082Z,5.30
2023-04-05T07:38:29.720Z,5.39
2023-04-05T07:40:56.548Z,5.74
2023-04-05T07:43:25.514Z,5.35
2023-04-05T07:45:53.549Z,5.87
2023-04-05T07:48:21.174Z,5.16
2023-04-05T07:50:49.185Z,5.41
2023-04-05T07:53:17.029Z,5.57
2023-04-05T07:55:43.596Z,5.80
2023-04-05T07:58:11.068Z,6.24
2023-04-05T08:00:38.513Z,7.36
2023-04-05T08:03:05.384Z,8.45
2023-04-05T08:05:32.041Z,8.94
2023-04-05T08:07:58.850Z,8.60
2023-04-05T08:10:26.206Z,8.86
2023-04-05T08:12:53.548Z,8.97
2023-04-05T08:15:20.150Z,9.02
2023-04-05T08:17:47.115Z,10.03
2023-04-05T08:20:13.817Z,9.12
2023-04-05T08:22:40.602Z,9.30
2023-04-05T08:25:08.019Z,9.33
2023-04-05T08:27:34.614Z,9.65
2023-04-05T08:30:01.417Z,8.43
2023-04-05T08:35:23.789Z,8.03
2023-04-05T08:37:50.900Z,8.73
2023-04-05T08:40:17.684Z,8.73
2023-04-05T08:43:12.337Z,7.96
2023-04-05T08:45:50.227Z,8.93
2023-04-05T08:48:17.799Z,8.46
2023-04-05T08:50:55.930Z,7.88
2023-04-05T08:53:23.959Z,8.48
2023-04-05T08:55:53.360Z,8.51
2023-04-05T08:58:25.465Z,9.60
2023-04-05T09:00:57.522Z,9.72
2023-04-05T09:03:29.911Z,9.78
2023-04-05T09:05:59.502Z,9.67
2023-04-05T09:08:26.237Z,10.09
2023-04-05T09:10:52.907Z,9.76
2023-04-05T09:13:19.911Z,10.84
2023-04-05T09:15:47.191Z,10.41
2023-04-05T09:18:25.481Z,10.77
2023-04-05T09:23:29.151Z,9.86
2023-04-05T09:25:55.934Z,10.73
2023-04-05T09:28:22.656Z,10.32
2023-04-05T09:30:49.355Z,10.37
2023-04-05T09:33:20.955Z,10.31
2023-04-05T09:35:51.337Z,10.29
2023-04-05T09:38:18.003Z,10.36
2023-04-05T09:40:45.932Z,10.61
2023-04-05T09:43:14.682Z,10.53
2023-04-05T09:45:42.922Z,10.81
2023-04-05T09:48:10.214Z,10.42
2023-04-05T09:50:37.012Z,10.58
2023-04-05T09:53:16.579Z,10.42
2023-04-05T09:55:43.972Z,9.54
2023-04-05T09:58:23.838Z,10.13
2023-04-05T10:01:17.083Z,9.51
2023-04-05T10:04:04.546Z,9.91
2023-04-05T10:06:49.434Z,10.11
2023-04-05T10:09:18.082Z,9.27
2023-04-05T10:11:45.999Z,9.11
2023-04-05T10:14:12.587Z,9.95
2023-04-05T10:19:24.471Z,10.39
2023-04-05T10:21:54.169Z,10.84
2023-04-05T10:24:23.564Z,10.61
2023-04-05T10:27:16.137Z,10.46
2023-04-05T10:30:06.434Z,10.72
2023-04-05T10:37:08.645Z,10.64
2023-04-05T10:39:42.725Z,10.31
2023-04-05T10:42:24.064Z,10.87
2023-04-05T10:45:02.438Z,10.68
2023-04-05T10:47:32.346Z,10.58
2023-04-05T10:50:03.769Z,10.52
2023-04-05T10:52:31.048Z,10.38
2023-04-05T10:55:02.923Z,10.45
2023-04-05T10:57:30.332Z,10.67
2023-04-05T11:00:00.190Z,10.58
2023-04-05T11:02:29.711Z,10.72
2023-04-05T11:04:57.153Z,10.71
2023-04-05T11:07:24.106Z,10.81
2023-04-05T11:10:04.430Z,10.97
2023-04-05T11:12:49.353Z,11.11
2023-04-05T11:15:29.221Z,11.21
2023-04-05T11:18:18.079Z,11.04
2023-04-05T11:20:51.897Z,11.10
2023-04-05T11:23:23.398Z,11.01
2023-04-05T11:26:03.108Z,10.87
2023-04-05T11:28:32.050Z,11.14
2023-04-05T11:31:13.133Z,10.71
2023-04-05T11:33:56.917Z,10.72
2023-04-05T11:36:52.276Z,10.23
2023-04-05T11:39:18.897Z,10.33
2023-04-05T11:42:02.118Z,10.48
2023-04-05T11:44:30.892Z,10.83
2023-04-05T11:46:59.946Z,9.45
2023-04-05T11:49:28.777Z,9.76
2023-04-05T11:51:55.750Z,9.25
2023-04-05T11:54:50.273Z,9.87
2023-04-05T11:57:22.474Z,10.11
2023-04-05T11:59:53.680Z,10.04
2023-04-05T12:02:21.477Z,9.20
2023-04-05T12:04:58.594Z,9.76
2023-04-05T12:07:32.040Z,10.02
2023-04-05T12:10:11.083Z,10.40
2023-04-05T12:12:39.861Z,10.42
2023-04-05T12:15:09.044Z,9.69
2023-04-05T12:17:43.221Z,9.70
2023-04-05T12:20:11.676Z,10.29
2023-04-05T12:22:39.068Z,9.95
2023-04-05T12:25:06.297Z,10.38
2023-04-05T12:27:34.107Z,10.86
2023-04-05T12:30:17.893Z,9.46
2023-04-05T12:32:52.579Z,9.54
2023-04-05T12:35:44.540Z,9.93
2023-04-05T12:38:15.952Z,9.75
2023-04-05T12:40:42.621Z,9.73
2023-04-05T12:43:09.700Z,10.21
2023-04-05T12:45:40.520Z,10.11
2023-04-05T12:48:36.936Z,10.22
2023-04-05T12:51:35.728Z,10.53
2023-04-05T12:54:04.248Z,11.17
2023-04-05T12:56:30.963Z,10.94
2023-04-05T12:58:57.535Z,10.65
2023-04-05T13:01:24.145Z,10.55
2023-04-05T13:03:53.370Z,10.53
2023-04-05T13:06:23.463Z,10.76
2023-04-05T13:08:50.314Z,10.35
2023-04-05T13:11:17.062Z,10.44
2023-04-05T13:13:44.070Z,10.29
2023-04-05T13:16:10.770Z,10.12
2023-04-05T13:18:37.581Z,10.37
2023-04-05T13:21:10.138Z,10.29
2023-04-05T13:23:37.964Z,10.41
2023-04-05T13:26:05.357Z,9.90
2023-04-05T13:28:32.912Z,10.71
2023-04-05T13:30:59.806Z,11.26
2023-04-05T13:33:26.449Z,10.39
2023-04-05T13:35:53.059Z,10.49
2023-04-05T13:38:19.757Z,10.91
2023-04-05T13:40:46.477Z,10.75
2023-04-05T13:43:13.410Z,9.94
2023-04-05T13:45:40.201Z,10.04
2023-04-05T13:48:07.023Z,10.40
2023-04-05T13:50:35.677Z,10.14
2023-04-05T13:53:02.258Z,10.21
2023-04-05T13:55:28.869Z,10.09
2023-04-05T13:57:55.447Z,10.07
2023-04-05T14:00:22.338Z,9.86
2023-04-05T14:02:51.797Z,9.83
2023-04-05T14:05:18.614Z,10.78
2023-04-05T14:07:45.570Z,10.81
2023-04-05T14:10:12.356Z,10.82
2023-04-05T14:12:39.410Z,10.96
2023-04-05T14:15:06.700Z,11.22
2023-04-05T14:17:33.317Z,11.38
2023-04-05T14:19:59.919Z,11.12
2023-04-05T14:22:26.632Z,10.91
2023-04-05T14:24:53.313Z,10.75
2023-04-05T14:27:26.425Z,10.65
2023-04-05T14:30:05.713Z,10.78
2023-04-05T14:32:33.753Z,11.30
2023-04-05T14:35:00.814Z,10.74
2023-04-05T14:37:27.508Z,11.10
2023-04-05T14:39:57.328Z,11.24
2023-04-05T14:42:34.062Z,11.06
2023-04-05T14:45:08.783Z,11.09
2023-04-05T14:47:35.852Z,11.14
2023-04-05T14:50:02.520Z,10.80
2023-04-05T14:52:29.877Z,11.27
2023-04-05T14:54:56.450Z,11.25
2023-04-05T14:57:23.059Z,10.24
2023-04-05T14:59:49.661Z,10.61
2023-04-05T15:02:16.758Z,10.94
2023-04-05T15:04:43.858Z,10.89
2023-04-05T15:07:10.632Z,10.19
2023-04-05T15:09:37.252Z,10.59
2023-04-05T15:12:04.153Z,9.90
2023-04-05T15:14:32.507Z,9.08
2023-04-05T15:16:59.418Z,9.81
2023-04-05T15:19:27.416Z,10.45
2023-04-05T15:21:54.104Z,10.33
2023-04-05T15:24:20.753Z,9.70
2023-04-05T15:26:47.521Z,10.36
2023-04-05T15:29:14.159Z,10.74
2023-04-05T15:31:41.845Z,10.96
2023-04-05T15:34:08.623Z,10.74
2023-04-05T15:36:36.095Z,10.77
2023-04-05T15:39:05.017Z,10.59
2023-04-05T15:41:34.333Z,10.73
2023-04-05T15:44:01.389Z,10.81
2023-04-05T15:46:29.191Z,10.85
2023-04-05T15:48:56.196Z,10.96
2023-04-05T15:51:23.021Z,11.04
2023-04-05T15:53:49.674Z,10.61
2023-04-05T15:56:16.329Z,10.78
2023-04-05T15:58:42.996Z,10.88
2023-04-05T16:01:09.766Z,10.58
2023-04-05T16:03:36.623Z,10.78
2023-04-05T16:06:03.502Z,10.62
2023-04-05T16:08:30.393Z,10.73
2023-04-05T16:10:58.306Z,10.87
2023-04-05T16:13:25.076Z,10.88
2023-04-05T16:15:51.762Z,10.84
2023-04-05T16:18:24.850Z,10.57
2023-04-05T16:20:51.346Z,10.71
2023-04-05T16:23:17.948Z,10.76
2023-04-05T16:25:44.654Z,10.66
2023-04-05T16:28:11.242Z,10.48
2023-04-05T16:30:37.877Z,10.26
2023-04-05T16:33:07.745Z,10.38
2023-04-05T16:35:34.436Z,10.49
2023-04-05T16:38:02.609Z,10.48
2023-04-05T16:40:29.201Z,10.27
2023-04-05T16:42:55.805Z,10.31
2023-04-05T16:45:22.372Z,10.38
2023-04-05T16:47:49.101Z,10.21
2023-04-05T16:50:15.809Z,10.17
2023-04-05T16:52:42.472Z,9.94
2023-04-05T16:55:10.393Z,9.90
2023-04-05T16:57:36.981Z,9.95
2023-04-05T17:00:05.772Z,9.90
2023-04-05T17:02:32.492Z,9.83
2023-04-05T17:04:59.132Z,9.82
2023-04-05T17:07:25.809Z,9.51
2023-04-05T17:09:52.924Z,9.54
2023-04-05T17:12:20.112Z,9.59
2023-04-05T17:14:46.712Z,9.62
2023-04-05T17:17:13.392Z,9.59
2023-04-05T17:19:39.997Z,9.55
2023-04-05T17:22:06.657Z,9.52
2023-04-05T17:24:34.741Z,9.45
2023-04-05T17:27:01.569Z,9.35
2023-04-05T17:29:28.237Z,9.30
2023-04-05T17:31:54.877Z,9.20
2023-04-05T17:34:21.442Z,9.03
2023-04-05T17:36:48.096Z,9.01
2023-04-05T17:39:17.633Z,8.95
2023-04-05T17:41:46.252Z,8.87
2023-04-05T17:44:13.063Z,8.67
2023-04-05T17:46:44.649Z,8.47
2023-04-05T17:49:15.379Z,8.46
2023-04-05T17:51:42.267Z,8.20
2023-04-05T17:54:08.978Z,7.85
2023-04-05T17:56:36.070Z,7.68
2023-04-05T17:59:04.111Z,7.39
2023-04-05T18:01:31.285Z,7.28
2023-04-05T18:03:59.313Z,7.15
2023-04-05T18:06:26.430Z,7.18
2023-04-05T18:08:53.088Z,6.35
2023-04-05T18:11:19.753Z,6.43
2023-04-05T18:13:47.507Z,6.24
2023-04-05T18:16:14.134Z,6.13
2023-04-05T18:18:41.094Z,6.28
2023-04-05T18:21:10.059Z,6.09
2023-04-05T18:23:36.854Z,6.13
2023-04-05T18:26:07.811Z,6.28
2023-04-05T18:28:34.415Z,5.80
2023-04-05T18:31:01.499Z,5.91
2023-04-05T18:33:28.057Z,5.86
2023-04-05T18:35:54.686Z,5.54
2023-04-05T18:38:21.859Z,5.35
2023-04-05T18:40:48.729Z,5.25
2023-04-05T18:43:15.345Z,5.11
2023-04-05T18:45:42.002Z,5.22
2023-04-05T18:48:08.714Z,5.57
2023-04-05T18:50:36.060Z,5.34
2023-04-05T18:53:02.661Z,5.26
2023-04-05T18:55:29.257Z,5.34
2023-04-05T18:57:56.044Z,5.32
2023-04-05T19:00:22.628Z,5.16
2023-04-05T19:02:49.260Z,5.00
2023-04-05T19:05:15.981Z,4.73
2023-04-05T19:07:42.587Z,4.66
2023-04-05T19:10:09.808Z,5.23
2023-04-05T19:12:36.420Z,5.00
2023-04-05T19:15:03.370Z,4.97
2023-04-05T19:17:31.219Z,4.82
2023-04-05T19:19:57.802Z,4.58
2023-04-05T19:22:24.360Z,4.72
2023-04-05T19:24:50.969Z,4.47
2023-04-05T19:27:17.516Z,4.61
2023-04-05T19:29:44.104Z,4.63
2023-04-05T19:32:11.078Z,4.64
2023-04-05T19:34:38.914Z,4.61
2023-04-05T19:37:36.648Z,4.68
2023-04-05T19:40:37.573Z,4.69
2023-04-05T19:43:04.846Z,4.66
2023-04-05T19:45:32.567Z,4.95
2023-04-05T19:48:01.272Z,5.17
2023-04-05T19:50:58.827Z,5.38
2023-04-05T19:53:48.351Z,5.57
2023-04-05T19:56:23.954Z,5.47
2023-04-05T19:58:56.882Z,5.53
2023-04-05T20:01:35.537Z,5.41
2023-04-05T20:04:13.260Z,5.72
2023-04-05T20:06:54.031Z,5.97
2023-04-05T20:09:23.668Z,5.98
2023-04-05T20:11:51.991Z,4.86
2023-04-05T20:14:24.777Z,5.04
2023-04-05T20:17:19.560Z,5.00
2023-04-05T20:20:17.266Z,5.80
2023-04-05T20:22:43.864Z,5.47
2023-04-05T20:25:43.959Z,5.62
2023-04-05T20:28:25.684Z,5.99
2023-04-05T20:30:53.314Z,5.34
2023-04-05T20:33:41.730Z,5.64
2023-04-05T20:36:21.682Z,5.71
2023-04-05T20:38:49.542Z,5.51
2023-04-05T20:41:18.688Z,5.77
2023-04-05T20:43:46.335Z,5.87
2023-04-05T20:46:22.204Z,5.45
2023-04-05T20:49:07.849Z,5.02
2023-04-05T20:51:39.304Z,5.01
2023-04-05T20:54:07.616Z,5.24
2023-04-05T20:56:41.018Z,4.98
2023-04-05T20:59:08.185Z,5.25
2023-04-05T21:01:37.780Z,4.80
2023-04-05T21:04:05.742Z,5.31
2023-04-05T21:06:34.208Z,5.61
2023-04-05T21:09:01.209Z,5.55
2023-04-05T21:11:27.845Z,5.15
2023-04-05T21:13:54.513Z,5.22
2023-04-05T21:16:21.204Z,5.21
2023-04-05T21:18:47.900Z,5.33
2023-04-05T21:21:14.464Z,5.38
2023-04-05T21:23:41.517Z,5.26
2023-04-05T21:26:08.089Z,5.44
2023-04-05T21:28:34.719Z,5.30
2023-04-05T21:31:27.015Z,5.30
2023-04-05T21:34:17.544Z,5.57
2023-04-05T21:36:44.140Z,5.33
2023-04-05T21:39:10.978Z,4.98
2023-04-05T21:41:40.407Z,4.67
2023-04-05T21:44:06.971Z,4.86
2023-04-05T21:46:33.624Z,5.04
2023-04-05T21:49:00.344Z,5.18
2023-04-05T22:04:42.967Z,4.98
2023-04-05T22:07:09.642Z,4.89
2023-04-05T22:09:36.536Z,4.51
2023-04-05T22:14:58.556Z,4.77
2023-04-05T22:17:25.298Z,4.88
2023-04-05T22:19:51.944Z,4.35
2023-04-05T22:22:20.086Z,4.61
2023-04-05T22:24:47.417Z,3.69
2023-04-05T22:27:14.019Z,4.09
2023-04-05T22:29:40.824Z,4.41
2023-04-05T22:32:07.704Z,4.55
2023-04-05T22:34:58.554Z,4.50
2023-04-05T22:37:49.161Z,4.50
2023-04-05T22:40:26.955Z,4.34
2023-04-05T22:42:54.306Z,4.53
2023-04-05T22:45:21.151Z,4.63
2023-04-05T22:47:47.832Z,4.07
2023-04-05T22:50:19.694Z,4.03
2023-04-05T22:52:46.452Z,3.95
2023-04-05T22:55:13.163Z,3.80
2023-04-05T22:57:42.219Z,3.63
2023-04-05T23:00:09.258Z,3.90
2023-04-05T23:02:35.951Z,4.30
2023-04-05T23:05:22.521Z,4.22
2023-04-05T23:07:49.110Z,4.25
2023-04-05T23:10:15.896Z,3.99
2023-04-05T23:12:43.468Z,3.46
2023-04-05T23:15:32.051Z,3.61
2023-04-05T23:18:23.273Z,3.66
2023-04-05T23:20:50.139Z,3.80
2023-04-05T23:23:16.745Z,4.00
2023-04-05T23:25:43.341Z,3.60
2023-04-05T23:28:09.924Z,3.51
2023-04-05T23:30:36.532Z,3.60
2023-04-05T23:33:03.179Z,3.86
2023-04-05T23:35:29.930Z,3.77
2023-04-05T23:37:59.971Z,3.78
2023-04-05T23:40:26.655Z,3.62
2023-04-05T23:42:53.322Z,3.65
2023-04-05T23:45:51.796Z,3.59
2023-04-05T23:48:43.412Z,3.80
2023-04-05T23:51:10.049Z,3.28
2023-04-05T23:53:36.811Z,2.68
2023-04-05T23:56:03.606Z,2.58
2023-04-05T23:58:30.336Z,2.21
